Aeroporto :
LOGIN :

Iscrizione | Disclaimer

   EN    FR    IT 

 










Sommario :    VFR   VFR Marginale   IFR   IFR Intensivo   IFR Molto Intensivo
Visibilità : 
Base nubi : 
>= 8 km
>= 3000ft
5 / 8 km
1000 / 3000 ft
1500m / 5 km
500 / 1000 ft
800 / 1500m
200 / 500 ft
< 800m
< 200 ft
Simboli :   Temporali  Nebbia  Neve Forte  Precipitazioni Forti  Vento > 20 kt
SIGMETs :   Varie  Temporali  Ghiacco  Turbolenza  Onda orograficha  Ceneri Vulcaniche






- Altitudine del aeroporto : 1906 ft
- Codice IATA : INN


LOWI - Innsbruck

ULTIMO METAR :
  • 250620Z 25004KT 2000 -DZ BR SCT001 OVC003 02/02 Q1010 TEMPO 1200 BCFG

METARs OBSOLETI :
  • 250550Z 27006KT 230V290 2000 BR OVC002 02/02 Q1010 TEMPO 1200 BCFG
  • 250520Z 26006KT 3000 BR OVC003 03/02 Q1010 TEMPO 5000
  • 250450Z VRB02KT 2500 BR OVC002 03/03 Q1010 TEMPO 4000
  • 250420Z AUTO 23003KT 2700 BR FEW001 BKN002 03/03 Q1010
  • 250350Z AUTO 26005KT 2300 BR BKN002 03/03 Q1010

TAF TAF LOWI
Valido dal 25 a 06 ore il 26 a 06 ore UTC


250515Z 2506/2606 27004KT 2000 BR BKN003 TX11/2514Z TN02/2506Z
TEMPO 2506/2508 5000 BKN005
BECMG 2508/2510 27009KT 9999 FEW006 BKN150
BECMG 2516/2518 27004KT -RA FEW030 BKN060
TEMPO 2518/2524 27012G22KT SHRA
PROB30
TEMPO 2600/2604 BKN005
TEMPO 2604/2606 8000 -SHSNRA SCT010 BKN020



MetMap, La meteo Aeronautica in un colpo d'occhio ! - Copyright ORBIFLY Dicembre 2007 - Disclaimer

ORBIFLY MET'MAP TEAM :

Programmazione e sviluppo : Alexandra Zaïnal
Concezione : Baudouin d'Aumeries
Aiuto per la programmazione : Marc-Olivier Méhu
Supporto tecnico e logistico : Manuel Goepfert
Aiuto per la traduzione : Arnaldo La Scala

Contatto : metmap@orbifly.com




FONTI E CREDITI :

   NOAA